createdAt,value
2018-07-05T00:02:45.242Z,7.87
2018-07-05T00:05:32.314Z,4.83
2018-07-05T00:08:19.443Z,7.67
2018-07-05T00:11:06.356Z,5.83
2018-07-05T00:13:53.329Z,5.90
2018-07-05T00:16:40.503Z,6.67
2018-07-05T00:19:27.326Z,5.93
2018-07-05T00:22:14.315Z,7.07
2018-07-05T00:25:01.224Z,9.47
2018-07-05T00:27:48.020Z,9.67
2018-07-05T00:30:34.815Z,5.10
2018-07-05T00:33:22.009Z,8.23
2018-07-05T00:36:09.053Z,7.00
2018-07-05T00:38:56.035Z,5.30
2018-07-05T00:41:43.430Z,5.87
2018-07-05T00:44:30.190Z,7.10
2018-07-05T00:47:16.965Z,8.87
2018-07-05T00:50:03.861Z,5.77
2018-07-05T00:52:50.656Z,6.67
2018-07-05T00:55:37.497Z,8.47
2018-07-05T00:58:24.325Z,8.00
2018-07-05T01:01:12.021Z,8.23
2018-07-05T01:03:58.842Z,6.60
2018-07-05T01:06:45.732Z,6.17
2018-07-05T01:09:32.433Z,6.50
2018-07-05T01:12:19.117Z,8.53
2018-07-05T01:15:05.825Z,7.20
2018-07-05T01:17:52.817Z,6.67
2018-07-05T01:20:39.584Z,9.73
2018-07-05T01:23:26.325Z,7.27
2018-07-05T01:26:13.339Z,9.67
2018-07-05T01:29:00.072Z,7.83
2018-07-05T01:31:46.861Z,8.33
2018-07-05T01:34:33.855Z,7.40
2018-07-05T01:37:21.141Z,7.23
2018-07-05T01:40:08.280Z,7.20
2018-07-05T01:42:55.277Z,7.23
2018-07-05T01:45:42.321Z,7.13
2018-07-05T01:48:29.265Z,7.97
2018-07-05T01:51:16.157Z,10.27
2018-07-05T01:54:03.070Z,9.73
2018-07-05T01:56:50.005Z,8.60
2018-07-05T01:59:36.975Z,7.30
2018-07-05T02:02:23.953Z,9.00
2018-07-05T02:05:10.624Z,8.17
2018-07-05T02:07:57.447Z,9.27
2018-07-05T02:10:44.488Z,10.07
2018-07-05T02:13:31.509Z,8.13
2018-07-05T02:16:18.273Z,9.07
2018-07-05T02:19:05.087Z,8.93
2018-07-05T02:21:51.889Z,11.77
2018-07-05T02:24:38.737Z,9.00
2018-07-05T02:27:26.658Z,9.20
2018-07-05T02:30:13.413Z,10.40
2018-07-05T02:33:00.481Z,10.07
2018-07-05T02:35:47.280Z,11.17
2018-07-05T02:38:34.115Z,9.23
2018-07-05T02:41:20.941Z,8.80
2018-07-05T02:44:07.701Z,8.37
2018-07-05T02:46:54.446Z,9.47
2018-07-05T02:49:41.746Z,7.77
2018-07-05T02:52:28.773Z,7.17
2018-07-05T02:55:15.987Z,7.83
2018-07-05T02:58:03.097Z,8.40
2018-07-05T03:00:50.673Z,9.80
2018-07-05T03:03:37.624Z,9.27
2018-07-05T03:06:24.514Z,10.03
2018-07-05T03:09:11.335Z,6.97
2018-07-05T03:11:58.305Z,9.50
2018-07-05T03:14:45.140Z,13.23
2018-07-05T03:17:31.960Z,8.57
2018-07-05T03:20:18.658Z,9.13
2018-07-05T03:23:05.484Z,11.93
2018-07-05T03:25:52.442Z,11.80
2018-07-05T03:28:39.247Z,10.90
2018-07-05T03:31:26.209Z,7.80
2018-07-05T03:34:13.103Z,9.17
2018-07-05T03:37:00.106Z,8.57
2018-07-05T03:39:46.914Z,11.03
2018-07-05T03:42:34.014Z,10.03
2018-07-05T03:45:20.845Z,7.93
2018-07-05T03:48:07.605Z,7.10
2018-07-05T03:50:54.562Z,8.37
2018-07-05T03:53:42.730Z,7.00
2018-07-05T03:56:29.501Z,12.90
2018-07-05T03:59:16.473Z,7.63
2018-07-05T04:02:03.326Z,8.23
2018-07-05T04:04:50.285Z,9.53
2018-07-05T04:07:37.070Z,7.23
2018-07-05T04:10:23.888Z,6.80
2018-07-05T04:13:10.809Z,7.27
2018-07-05T04:15:57.610Z,8.77
2018-07-05T04:18:44.512Z,8.47
2018-07-05T04:21:31.302Z,10.60
2018-07-05T04:24:18.218Z,10.33
2018-07-05T04:27:05.261Z,6.23
2018-07-05T04:29:52.124Z,8.07
2018-07-05T04:32:38.874Z,7.03
2018-07-05T04:35:26.155Z,6.37
2018-07-05T04:38:13.296Z,6.23
2018-07-05T04:41:00.890Z,6.73
2018-07-05T04:43:47.925Z,8.80
2018-07-05T04:46:35.144Z,7.97
2018-07-05T04:49:22.125Z,6.23
2018-07-05T04:52:08.857Z,7.13
2018-07-05T04:54:55.677Z,7.87
2018-07-05T04:57:42.516Z,6.00
2018-07-05T05:00:29.234Z,11.87
2018-07-05T05:03:16.058Z,7.53
2018-07-05T05:06:02.921Z,6.33
2018-07-05T05:08:50.449Z,5.72
2018-07-05T05:11:38.105Z,6.22
2018-07-05T05:14:25.593Z,4.90
2018-07-05T05:17:13.041Z,7.55
2018-07-05T05:20:00.590Z,6.65
2018-07-05T05:22:48.171Z,6.33
2018-07-05T05:25:35.518Z,10.10
2018-07-05T05:28:23.071Z,5.47
2018-07-05T05:31:10.559Z,5.37
2018-07-05T05:33:58.057Z,5.33
2018-07-05T05:36:45.761Z,6.10
2018-07-05T05:39:32.985Z,6.10
2018-07-05T05:42:20.298Z,6.45
2018-07-05T05:45:07.573Z,5.77
2018-07-05T05:47:55.069Z,5.97
2018-07-05T05:50:42.023Z,4.93
2018-07-05T05:53:29.133Z,5.27
2018-07-05T05:56:18.536Z,4.73
2018-07-05T05:59:06.372Z,7.47
2018-07-05T06:01:53.691Z,6.43
2018-07-05T06:04:40.977Z,7.10
2018-07-05T06:07:29.217Z,3.63
2018-07-05T06:10:16.277Z,5.57
2018-07-05T06:13:03.757Z,5.07
2018-07-05T06:15:50.905Z,5.87
2018-07-05T06:18:38.499Z,4.13
2018-07-05T06:21:25.698Z,5.73
2018-07-05T06:24:13.009Z,8.27
2018-07-05T06:27:00.381Z,7.93
2018-07-05T06:29:47.825Z,16.60
2018-07-05T06:32:34.924Z,22.97
2018-07-05T06:35:24.731Z,35.43
2018-07-05T06:38:12.053Z,62.70
2018-07-05T06:40:59.436Z,70.90
2018-07-05T06:43:46.538Z,90.07
2018-07-05T06:46:33.622Z,93.70
2018-07-05T06:49:20.893Z,114.00
2018-07-05T06:52:08.253Z,98.90
2018-07-05T06:54:55.358Z,82.87
2018-07-05T06:57:42.641Z,73.07
2018-07-05T07:00:29.682Z,65.53
2018-07-05T07:03:16.761Z,49.03
2018-07-05T07:06:03.867Z,85.93
2018-07-05T07:08:50.887Z,119.10
2018-07-05T07:11:37.972Z,111.30
2018-07-05T07:14:25.101Z,93.40
2018-07-05T07:17:12.286Z,102.30
2018-07-05T07:19:59.429Z,86.10
2018-07-05T07:22:46.440Z,82.57
2018-07-05T07:25:33.601Z,51.37
2018-07-05T07:28:20.709Z,41.57
2018-07-05T07:31:07.857Z,43.77
2018-07-05T07:33:55.000Z,52.97
2018-07-05T07:36:42.096Z,60.13
2018-07-05T07:39:29.314Z,78.23
2018-07-05T07:42:03.990Z,87.83
2018-07-05T07:44:32.533Z,97.27
2018-07-05T07:47:01.103Z,92.23
2018-07-05T07:49:29.674Z,79.97
2018-07-05T07:51:58.214Z,61.27
2018-07-05T07:54:26.749Z,74.17
2018-07-05T07:56:55.281Z,55.80
2018-07-05T07:59:25.502Z,50.43
2018-07-05T08:01:54.075Z,93.93
2018-07-05T08:04:22.668Z,100.23
2018-07-05T08:06:51.223Z,90.93
2018-07-05T08:09:19.769Z,176.63
2018-07-05T08:11:48.346Z,121.93
2018-07-05T08:14:16.884Z,118.67
2018-07-05T08:16:45.421Z,125.83
2018-07-05T08:19:13.990Z,120.47
2018-07-05T08:21:42.617Z,104.80
2018-07-05T08:24:11.216Z,93.97
2018-07-05T08:26:39.775Z,96.33
2018-07-05T08:29:08.305Z,95.17
2018-07-05T08:31:36.825Z,83.33
2018-07-05T08:34:05.373Z,121.83
2018-07-05T08:36:33.976Z,125.90
2018-07-05T08:39:02.521Z,81.23
2018-07-05T08:41:31.070Z,146.00
2018-07-05T08:43:59.612Z,111.23
2018-07-05T08:46:28.193Z,72.47
2018-07-05T08:48:56.786Z,72.50
2018-07-05T08:51:25.317Z,66.23
2018-07-05T08:53:53.841Z,61.83
2018-07-05T08:56:22.369Z,63.53
2018-07-05T08:58:50.933Z,50.13
2018-07-05T09:01:19.591Z,60.10
2018-07-05T09:03:48.345Z,72.33
2018-07-05T09:06:17.240Z,56.87
2018-07-05T09:08:47.365Z,61.07
2018-07-05T09:11:15.893Z,53.13
2018-07-05T09:13:44.480Z,77.40
2018-07-05T09:16:13.103Z,51.10
2018-07-05T09:18:41.729Z,69.17
2018-07-05T09:21:10.250Z,52.87
2018-07-05T09:23:38.843Z,67.53
2018-07-05T09:26:07.645Z,70.20
2018-07-05T09:28:36.185Z,51.57
2018-07-05T09:31:04.821Z,45.27
2018-07-05T09:33:33.354Z,26.87
2018-07-05T09:36:01.886Z,21.30
2018-07-05T09:38:30.470Z,24.33
2018-07-05T09:40:59.123Z,20.60
2018-07-05T09:43:27.689Z,17.57
2018-07-05T09:45:56.221Z,11.40
2018-07-05T09:48:24.753Z,17.10
2018-07-05T09:50:53.316Z,29.03
2018-07-05T09:53:21.850Z,28.73
2018-07-05T09:55:50.488Z,33.33
2018-07-05T09:58:19.028Z,28.83
2018-07-05T10:00:49.403Z,22.33
2018-07-05T10:03:19.204Z,18.93
2018-07-05T10:05:47.821Z,25.87
2018-07-05T10:08:17.437Z,31.87
2018-07-05T10:10:45.968Z,5.83
2018-07-05T10:13:14.664Z,4.33
2018-07-05T10:15:43.339Z,4.60
2018-07-05T10:18:11.882Z,4.07
2018-07-05T10:20:40.418Z,3.00
2018-07-05T10:23:08.954Z,4.80
2018-07-05T10:25:37.804Z,4.40
2018-07-05T10:28:06.663Z,4.33
2018-07-05T10:30:47.789Z,3.10
2018-07-05T10:33:35.225Z,3.52
2018-07-05T10:36:10.275Z,4.40
2018-07-05T10:38:39.136Z,3.17
2018-07-05T10:41:20.409Z,4.42
2018-07-05T10:44:07.724Z,3.83
2018-07-05T10:46:55.090Z,4.03
2018-07-05T10:49:42.488Z,3.00
2018-07-05T10:52:29.983Z,3.33
2018-07-05T10:55:17.367Z,2.98
2018-07-05T10:58:05.069Z,4.05
2018-07-05T11:00:52.553Z,4.05
2018-07-05T11:03:39.934Z,3.55
2018-07-05T11:06:27.317Z,2.95
2018-07-05T11:09:14.748Z,2.95
2018-07-05T11:12:02.202Z,2.60
2018-07-05T11:14:49.715Z,2.55
2018-07-05T11:17:37.324Z,3.10
2018-07-05T11:20:24.967Z,3.05
2018-07-05T11:23:12.461Z,4.00
2018-07-05T11:25:59.849Z,4.83
2018-07-05T11:28:47.166Z,2.95
2018-07-05T11:31:34.447Z,3.35
2018-07-05T11:34:21.701Z,3.65
2018-07-05T11:37:09.134Z,3.33
2018-07-05T11:39:56.532Z,4.15
2018-07-05T11:42:44.096Z,3.00
2018-07-05T11:45:31.769Z,3.35
2018-07-05T11:48:19.151Z,3.42
2018-07-05T11:51:06.545Z,4.37
2018-07-05T11:53:54.018Z,2.80
2018-07-05T11:56:41.617Z,4.08
2018-07-05T11:59:29.009Z,3.35
2018-07-05T12:02:16.290Z,4.97
2018-07-05T12:05:03.537Z,8.20
2018-07-05T12:07:50.939Z,5.28
2018-07-05T12:10:38.343Z,9.10
2018-07-05T12:13:25.589Z,11.08
2018-07-05T12:16:13.085Z,18.12
2018-07-05T12:19:00.449Z,15.20
2018-07-05T12:21:47.704Z,20.82
2018-07-05T12:24:35.221Z,19.82
2018-07-05T12:27:22.752Z,14.55
2018-07-05T12:30:10.290Z,15.45
2018-07-05T12:32:57.618Z,9.33
2018-07-05T12:35:45.038Z,8.15
2018-07-05T12:38:32.458Z,21.73
2018-07-05T12:41:19.873Z,9.10
2018-07-05T12:44:07.285Z,8.43
2018-07-05T12:46:54.584Z,8.93
2018-07-05T12:49:41.890Z,8.65
2018-07-05T12:52:29.217Z,6.90
2018-07-05T12:55:16.658Z,5.53
2018-07-05T12:58:04.526Z,11.15
2018-07-05T13:00:52.074Z,6.33
2018-07-05T13:03:39.557Z,15.45
2018-07-05T13:06:26.652Z,27.30
2018-07-05T13:09:14.079Z,17.20
2018-07-05T13:12:01.392Z,10.70
2018-07-05T13:14:48.753Z,12.20
2018-07-05T13:17:36.317Z,13.85
2018-07-05T13:20:23.653Z,10.55
2018-07-05T13:23:11.122Z,12.00
2018-07-05T13:25:58.322Z,10.10
2018-07-05T13:28:45.640Z,8.15
2018-07-05T13:31:33.000Z,6.90
2018-07-05T13:34:20.221Z,6.22
2018-07-05T13:37:07.649Z,7.05
2018-07-05T13:39:55.180Z,7.60
2018-07-05T13:42:45.679Z,9.35
2018-07-05T13:45:33.073Z,7.05
2018-07-05T13:48:20.593Z,7.85
2018-07-05T13:51:08.255Z,7.08
2018-07-05T13:53:55.967Z,9.68
2018-07-05T13:56:43.329Z,14.18
2018-07-05T13:59:30.714Z,16.23
2018-07-05T14:02:18.138Z,17.62
2018-07-05T14:05:05.533Z,14.47
2018-07-05T14:07:52.907Z,11.50
2018-07-05T14:10:40.545Z,28.87
2018-07-05T14:13:27.927Z,15.30
2018-07-05T14:16:15.261Z,23.70
2018-07-05T14:19:02.761Z,11.95
2018-07-05T14:21:50.173Z,18.48
2018-07-05T14:24:37.445Z,9.80
2018-07-05T14:27:25.041Z,16.15
2018-07-05T14:30:12.432Z,9.83
2018-07-05T14:32:59.683Z,9.60
2018-07-05T14:35:47.085Z,9.95
2018-07-05T14:38:34.475Z,18.27
2018-07-05T14:41:22.237Z,10.13
2018-07-05T14:44:09.690Z,11.12
2018-07-05T14:46:57.273Z,7.72
2018-07-05T14:49:44.654Z,10.20
2018-07-05T14:52:32.180Z,12.65
2018-07-05T14:55:19.593Z,13.80
2018-07-05T14:58:07.013Z,13.90
2018-07-05T15:00:54.684Z,13.30
2018-07-05T15:03:42.257Z,26.85
2018-07-05T15:06:29.704Z,21.82
2018-07-05T15:09:17.109Z,21.73
2018-07-05T15:12:04.500Z,22.32
2018-07-05T15:14:51.845Z,21.68
2018-07-05T15:17:39.248Z,23.02
2018-07-05T15:20:26.713Z,18.25
2018-07-05T15:23:14.148Z,11.83
2018-07-05T15:26:01.659Z,20.00
2018-07-05T15:28:49.097Z,24.27
2018-07-05T15:31:36.418Z,19.30
2018-07-05T15:34:23.814Z,27.87
2018-07-05T15:37:11.217Z,23.95
2018-07-05T15:39:58.680Z,33.20
2018-07-05T15:42:46.152Z,39.15
2018-07-05T15:45:33.630Z,35.88
2018-07-05T15:48:21.113Z,39.40
2018-07-05T15:51:08.518Z,41.13
2018-07-05T15:53:55.990Z,42.62
2018-07-05T15:56:43.252Z,18.15
2018-07-05T15:59:30.800Z,19.87
2018-07-05T16:02:18.238Z,19.77
2018-07-05T16:05:05.573Z,19.98
2018-07-05T16:07:53.040Z,18.27
2018-07-05T16:10:40.403Z,22.37
2018-07-05T16:13:27.828Z,18.65
2018-07-05T16:16:15.245Z,18.82
2018-07-05T16:19:02.674Z,19.17
2018-07-05T16:21:50.065Z,18.90
2018-07-05T16:24:37.431Z,19.57
2018-07-05T16:27:25.313Z,21.97
2018-07-05T16:30:12.673Z,28.57
2018-07-05T16:33:00.092Z,34.80
2018-07-05T16:35:47.413Z,39.60
2018-07-05T16:38:34.699Z,25.17
2018-07-05T16:41:22.012Z,33.40
2018-07-05T16:44:09.356Z,48.48
2018-07-05T16:46:56.674Z,41.37
2018-07-05T16:49:44.038Z,50.50
2018-07-05T16:52:31.719Z,42.67
2018-07-05T16:55:19.050Z,23.02
2018-07-05T16:58:06.676Z,21.52
2018-07-05T17:00:54.129Z,20.27
2018-07-05T17:03:41.441Z,19.60
2018-07-05T17:06:28.861Z,18.12
2018-07-05T17:09:16.204Z,24.43
2018-07-05T17:12:03.605Z,22.95
2018-07-05T17:14:50.933Z,21.60
2018-07-05T17:17:38.437Z,19.37
2018-07-05T17:20:25.838Z,12.15
2018-07-05T17:23:13.434Z,13.28
2018-07-05T17:26:00.831Z,13.68
2018-07-05T17:28:48.216Z,15.68
2018-07-05T17:31:36.448Z,15.38
2018-07-05T17:34:24.049Z,14.60
2018-07-05T17:37:11.512Z,8.25
2018-07-05T17:39:58.992Z,9.13
2018-07-05T17:42:46.533Z,8.23
2018-07-05T17:45:34.041Z,7.08
2018-07-05T17:48:21.365Z,4.62
2018-07-05T17:51:08.704Z,4.87
2018-07-05T17:53:56.010Z,5.72
2018-07-05T17:56:43.299Z,5.78
2018-07-05T17:59:30.660Z,7.03
2018-07-05T18:02:18.169Z,7.20
2018-07-05T18:05:05.465Z,6.50
2018-07-05T18:07:52.768Z,5.90
2018-07-05T18:10:40.081Z,6.87
2018-07-05T18:13:27.489Z,9.60
2018-07-05T18:16:14.830Z,10.48
2018-07-05T18:19:02.582Z,6.67
2018-07-05T18:21:49.978Z,10.88
2018-07-05T18:24:37.308Z,10.25
2018-07-05T18:27:24.632Z,6.42
2018-07-05T18:30:12.115Z,9.18
2018-07-05T18:32:59.494Z,7.47
2018-07-05T18:35:46.889Z,8.63
2018-07-05T18:38:34.267Z,7.47
2018-07-05T18:41:21.811Z,6.55
2018-07-05T18:44:09.258Z,4.92
2018-07-05T18:46:56.621Z,8.93
2018-07-05T18:49:43.874Z,5.15
2018-07-05T18:52:31.450Z,5.15
2018-07-05T18:55:18.750Z,6.10
2018-07-05T18:58:06.497Z,5.60
2018-07-05T19:00:53.939Z,6.92
2018-07-05T19:03:41.348Z,11.15
2018-07-05T19:06:29.111Z,9.90
2018-07-05T19:09:16.526Z,12.20
2018-07-05T19:12:03.990Z,11.03
2018-07-05T19:14:51.426Z,18.23
2018-07-05T19:17:38.842Z,18.60
2018-07-05T19:20:26.593Z,23.60
2018-07-05T19:23:14.004Z,22.90
2018-07-05T19:26:01.429Z,18.15
2018-07-05T19:28:49.137Z,13.85
2018-07-05T19:31:36.624Z,10.75
2018-07-05T19:34:24.135Z,10.70
2018-07-05T19:37:11.676Z,13.22
2018-07-05T19:39:59.008Z,11.20
2018-07-05T19:42:46.301Z,13.65
2018-07-05T19:45:33.634Z,14.38
2018-07-05T19:48:21.261Z,22.30
2018-07-05T19:51:08.649Z,15.80
2018-07-05T19:53:56.290Z,17.80
2018-07-05T19:56:43.721Z,15.10
2018-07-05T19:59:31.054Z,12.73
2018-07-05T20:02:18.506Z,15.32
2018-07-05T20:05:06.028Z,13.85
2018-07-05T20:07:53.420Z,16.75
2018-07-05T20:10:40.739Z,15.23
2018-07-05T20:13:28.028Z,13.20
2018-07-05T20:16:15.426Z,9.03
2018-07-05T20:19:02.739Z,8.38
2018-07-05T20:21:50.289Z,6.78
2018-07-05T20:24:37.748Z,5.35
2018-07-05T20:27:25.433Z,5.17
2018-07-05T20:30:12.793Z,5.50
2018-07-05T20:33:00.385Z,5.17
2018-07-05T20:35:47.795Z,6.45
2018-07-05T20:38:35.279Z,7.72
2018-07-05T20:41:22.900Z,4.50
2018-07-05T20:44:10.402Z,4.30
2018-07-05T20:46:57.841Z,4.85
2018-07-05T20:49:45.260Z,4.60
2018-07-05T20:52:32.775Z,5.62
2018-07-05T20:55:20.106Z,5.65
2018-07-05T20:58:07.600Z,5.20
2018-07-05T21:00:55.018Z,8.25
2018-07-05T21:03:42.447Z,8.93
2018-07-05T21:06:29.969Z,7.80
2018-07-05T21:09:16.822Z,12.57
2018-07-05T21:12:03.518Z,12.50
2018-07-05T21:14:50.919Z,9.70
2018-07-05T21:17:37.724Z,8.10
2018-07-05T21:20:24.502Z,8.10
2018-07-05T21:23:11.285Z,9.03
2018-07-05T21:25:58.167Z,9.43
2018-07-05T21:28:45.186Z,7.93
2018-07-05T21:31:32.226Z,10.07
2018-07-05T21:34:19.061Z,10.30
2018-07-05T21:37:06.027Z,8.63
2018-07-05T21:39:52.997Z,11.53
2018-07-05T21:42:39.839Z,7.67
2018-07-05T21:45:32.637Z,6.07
2018-07-05T21:48:19.731Z,7.43
2018-07-05T21:51:06.620Z,7.10
2018-07-05T21:53:53.433Z,7.63
2018-07-05T21:56:40.124Z,6.93
2018-07-05T21:59:26.847Z,7.67
2018-07-05T22:02:13.620Z,7.43
2018-07-05T22:05:00.606Z,7.23
2018-07-05T22:07:47.374Z,7.93
2018-07-05T22:10:34.295Z,7.30
2018-07-05T22:13:21.276Z,6.30
2018-07-05T22:16:08.041Z,9.33
2018-07-05T22:19:00.091Z,7.07
2018-07-05T22:21:52.157Z,8.00
2018-07-05T22:24:44.046Z,8.30
2018-07-05T22:27:36.031Z,7.13
2018-07-05T22:30:28.044Z,9.63
2018-07-05T22:33:14.882Z,8.47
2018-07-05T22:36:01.744Z,8.23
2018-07-05T22:38:48.627Z,9.53
2018-07-05T22:41:35.617Z,11.43
2018-07-05T22:44:22.433Z,10.37
2018-07-05T22:47:09.174Z,12.30
2018-07-05T22:49:56.061Z,12.37
2018-07-05T22:52:42.793Z,12.27
2018-07-05T22:55:29.617Z,13.53
2018-07-05T22:58:16.409Z,12.20
2018-07-05T23:01:03.228Z,12.30
2018-07-05T23:03:49.929Z,11.63
2018-07-05T23:06:36.645Z,8.50
2018-07-05T23:09:23.382Z,9.07
2018-07-05T23:12:10.265Z,8.97
2018-07-05T23:14:57.136Z,8.33
2018-07-05T23:17:43.967Z,9.40
2018-07-05T23:20:30.866Z,7.70
2018-07-05T23:23:17.585Z,8.63
2018-07-05T23:26:05.181Z,8.50
2018-07-05T23:28:52.067Z,8.90
2018-07-05T23:31:39.017Z,10.43
2018-07-05T23:34:25.777Z,10.57
2018-07-05T23:37:12.707Z,11.83
2018-07-05T23:39:59.408Z,10.97
2018-07-05T23:42:46.406Z,9.93
2018-07-05T23:45:33.353Z,10.43
2018-07-05T23:48:21.340Z,8.27
2018-07-05T23:51:08.459Z,8.07
2018-07-05T23:53:55.370Z,8.80
2018-07-05T23:56:42.371Z,8.13
2018-07-05T23:59:29.406Z,8.80
